createdAt,value
2018-07-24T00:01:14.068Z,6.20
2018-07-24T00:03:41.235Z,6.23
2018-07-24T00:06:08.385Z,5.93
2018-07-24T00:08:35.506Z,5.70
2018-07-24T00:11:03.233Z,6.57
2018-07-24T00:13:30.443Z,6.30
2018-07-24T00:15:57.556Z,6.03
2018-07-24T00:18:24.742Z,5.90
2018-07-24T00:20:51.869Z,6.03
2018-07-24T00:23:19.090Z,6.47
2018-07-24T00:25:46.262Z,6.70
2018-07-24T00:28:13.403Z,6.50
2018-07-24T00:30:40.517Z,6.30
2018-07-24T00:33:07.687Z,6.37
2018-07-24T00:35:34.928Z,6.30
2018-07-24T00:38:02.089Z,6.30
2018-07-24T00:40:29.241Z,7.03
2018-07-24T00:42:56.336Z,6.27
2018-07-24T00:45:23.457Z,5.97
2018-07-24T00:47:50.753Z,6.70
2018-07-24T00:50:17.871Z,6.17
2018-07-24T00:52:45.020Z,6.43
2018-07-24T00:55:12.184Z,6.37
2018-07-24T00:57:39.290Z,6.33
2018-07-24T01:00:06.559Z,6.67
2018-07-24T01:02:34.057Z,6.77
2018-07-24T01:05:01.167Z,7.03
2018-07-24T01:07:32.869Z,6.93
2018-07-24T01:10:00.046Z,6.90
2018-07-24T01:12:27.300Z,6.80
2018-07-24T01:14:54.428Z,6.50
2018-07-24T01:17:21.595Z,6.47
2018-07-24T01:19:48.709Z,6.93
2018-07-24T01:22:15.830Z,7.40
2018-07-24T01:24:43.201Z,6.93
2018-07-24T01:27:10.349Z,6.60
2018-07-24T01:29:37.480Z,6.97
2018-07-24T01:32:05.028Z,7.33
2018-07-24T01:34:32.134Z,7.23
2018-07-24T01:37:00.276Z,6.53
2018-07-24T01:39:27.444Z,7.10
2018-07-24T01:41:54.600Z,6.93
2018-07-24T01:44:21.731Z,7.27
2018-07-24T01:46:49.238Z,7.67
2018-07-24T01:49:16.481Z,6.97
2018-07-24T01:51:43.582Z,7.00
2018-07-24T01:54:10.763Z,7.10
2018-07-24T01:56:38.094Z,7.40
2018-07-24T01:59:05.175Z,7.10
2018-07-24T02:01:32.456Z,7.20
2018-07-24T02:03:59.629Z,7.33
2018-07-24T02:06:26.769Z,6.73
2018-07-24T02:08:53.935Z,6.90
2018-07-24T02:11:21.045Z,7.07
2018-07-24T02:13:48.277Z,7.43
2018-07-24T02:16:15.809Z,7.13
2018-07-24T02:18:42.900Z,8.40
2018-07-24T02:21:10.040Z,7.23
2018-07-24T02:23:37.195Z,7.83
2018-07-24T02:26:04.614Z,8.77
2018-07-24T02:28:31.742Z,7.60
2018-07-24T02:30:58.943Z,7.23
2018-07-24T02:33:26.066Z,7.70
2018-07-24T02:35:53.197Z,8.40
2018-07-24T02:38:20.466Z,7.80
2018-07-24T02:40:47.596Z,8.10
2018-07-24T02:43:14.724Z,8.33
2018-07-24T02:45:41.887Z,8.30
2018-07-24T02:48:08.988Z,8.43
2018-07-24T02:50:36.234Z,9.80
2018-07-24T02:53:03.685Z,11.67
2018-07-24T02:55:30.776Z,10.03
2018-07-24T02:57:57.883Z,8.83
2018-07-24T03:00:25.079Z,8.47
2018-07-24T03:02:52.349Z,8.53
2018-07-24T03:05:19.459Z,13.63
2018-07-24T03:07:46.639Z,8.40
2018-07-24T03:10:13.861Z,8.73
2018-07-24T03:12:40.980Z,8.60
2018-07-24T03:15:08.231Z,8.73
2018-07-24T03:17:35.404Z,9.77
2018-07-24T03:20:02.559Z,11.67
2018-07-24T03:22:29.736Z,9.77
2018-07-24T03:24:56.867Z,9.57
2018-07-24T03:27:24.095Z,10.60
2018-07-24T03:29:51.261Z,12.13
2018-07-24T03:32:18.404Z,9.73
2018-07-24T03:34:45.528Z,11.13
2018-07-24T03:37:12.704Z,11.23
2018-07-24T03:39:39.973Z,10.13
2018-07-24T03:42:07.206Z,9.67
2018-07-24T03:44:34.672Z,11.00
2018-07-24T03:47:01.773Z,9.70
2018-07-24T03:49:28.880Z,10.33
2018-07-24T03:51:56.203Z,9.40
2018-07-24T03:54:23.299Z,9.70
2018-07-24T03:56:50.431Z,8.90
2018-07-24T03:59:17.601Z,10.10
2018-07-24T04:01:44.731Z,10.00
2018-07-24T04:04:18.603Z,10.77
2018-07-24T04:06:45.715Z,8.73
2018-07-24T04:09:12.841Z,9.03
2018-07-24T04:11:40.684Z,9.63
2018-07-24T04:14:07.788Z,9.93
2018-07-24T04:16:35.355Z,8.87
2018-07-24T04:19:02.540Z,10.07
2018-07-24T04:21:29.699Z,9.67
2018-07-24T04:23:56.815Z,8.93
2018-07-24T04:26:23.974Z,8.63
2018-07-24T04:28:51.140Z,9.30
2018-07-24T04:31:18.340Z,8.97
2018-07-24T04:33:45.493Z,9.40
2018-07-24T04:36:12.646Z,9.40
2018-07-24T04:38:39.887Z,8.87
2018-07-24T04:41:07.048Z,10.03
2018-07-24T04:43:34.285Z,9.17
2018-07-24T04:46:01.393Z,10.10
2018-07-24T04:48:28.606Z,9.80
2018-07-24T04:50:55.783Z,13.00
2018-07-24T04:53:22.920Z,9.63
2018-07-24T04:55:50.065Z,9.33
2018-07-24T04:58:17.161Z,8.67
2018-07-24T05:00:45.308Z,9.43
2018-07-24T05:03:12.512Z,9.00
2018-07-24T05:05:39.627Z,9.17
2018-07-24T05:08:06.804Z,8.97
2018-07-24T05:10:33.968Z,9.03
2018-07-24T05:13:01.126Z,9.13
2018-07-24T05:15:28.305Z,10.10
2018-07-24T05:17:56.044Z,9.33
2018-07-24T05:20:23.208Z,10.70
2018-07-24T05:22:50.491Z,10.20
2018-07-24T05:25:17.636Z,10.57
2018-07-24T05:27:44.733Z,10.80
2018-07-24T05:30:11.915Z,9.80
2018-07-24T05:32:39.117Z,9.80
2018-07-24T05:35:06.394Z,10.07
2018-07-24T05:37:33.564Z,10.57
2018-07-24T05:40:00.676Z,10.70
2018-07-24T05:42:27.791Z,10.10
2018-07-24T05:44:54.986Z,10.90
2018-07-24T05:47:23.084Z,10.60
2018-07-24T05:49:50.237Z,10.90
2018-07-24T05:52:17.368Z,11.83
2018-07-24T05:54:44.658Z,11.10
2018-07-24T05:57:11.812Z,10.03
2018-07-24T05:59:38.920Z,10.57
2018-07-24T06:02:06.104Z,10.63
2018-07-24T06:04:33.242Z,10.57
2018-07-24T06:07:00.563Z,9.10
2018-07-24T06:09:27.715Z,8.30
2018-07-24T06:11:54.836Z,10.63
2018-07-24T06:14:22.041Z,9.27
2018-07-24T06:16:49.155Z,8.07
2018-07-24T06:19:16.265Z,9.63
2018-07-24T06:21:43.474Z,8.90
2018-07-24T06:24:10.564Z,8.73
2018-07-24T06:26:37.721Z,8.03
2018-07-24T06:29:04.867Z,7.80
2018-07-24T06:31:32.010Z,7.57
2018-07-24T06:33:59.167Z,7.33
2018-07-24T06:36:26.279Z,6.90
2018-07-24T06:38:53.524Z,7.60
2018-07-24T06:41:20.624Z,5.77
2018-07-24T06:43:47.749Z,7.57
2018-07-24T06:46:15.053Z,6.23
2018-07-24T06:48:42.186Z,7.30
2018-07-24T06:51:09.334Z,5.70
2018-07-24T06:53:36.517Z,5.60
2018-07-24T06:56:03.720Z,5.17
2018-07-24T06:58:30.970Z,5.03
2018-07-24T07:00:58.156Z,6.37
2018-07-24T07:03:25.327Z,5.17
2018-07-24T07:05:52.412Z,4.93
2018-07-24T07:08:19.595Z,6.67
2018-07-24T07:10:46.728Z,6.30
2018-07-24T07:13:13.975Z,4.57
2018-07-24T07:15:41.095Z,6.43
2018-07-24T07:18:08.227Z,5.10
2018-07-24T07:20:35.421Z,4.60
2018-07-24T07:23:02.733Z,8.43
2018-07-24T07:25:29.847Z,4.87
2018-07-24T07:27:56.993Z,4.77
2018-07-24T07:30:24.159Z,5.37
2018-07-24T07:32:51.284Z,5.20
2018-07-24T07:35:18.408Z,4.77
2018-07-24T07:37:45.584Z,4.77
2018-07-24T07:40:12.708Z,4.50
2018-07-24T07:42:39.839Z,4.97
2018-07-24T07:45:07.036Z,4.33
2018-07-24T07:47:34.216Z,4.53
2018-07-24T07:50:01.394Z,4.40
2018-07-24T07:52:28.608Z,4.30
2018-07-24T07:54:55.741Z,6.27
2018-07-24T07:57:22.846Z,4.13
2018-07-24T07:59:50.018Z,4.77
2018-07-24T08:02:17.154Z,4.73
2018-07-24T08:04:44.294Z,3.93
2018-07-24T08:07:11.476Z,4.33
2018-07-24T08:09:38.637Z,4.37
2018-07-24T08:12:05.786Z,5.03
2018-07-24T08:14:32.980Z,7.63
2018-07-24T08:17:00.139Z,5.40
2018-07-24T08:19:27.253Z,5.77
2018-07-24T08:21:54.392Z,4.60
2018-07-24T08:24:21.560Z,3.70
2018-07-24T08:26:48.705Z,4.00
2018-07-24T08:29:15.899Z,5.37
2018-07-24T08:31:43.032Z,4.57
2018-07-24T08:34:10.197Z,4.17
2018-07-24T08:36:37.441Z,4.60
2018-07-24T08:39:07.748Z,4.80
2018-07-24T08:41:34.984Z,4.33
2018-07-24T08:44:02.129Z,4.50
2018-07-24T08:46:29.247Z,4.17
2018-07-24T08:48:56.433Z,4.70
2018-07-24T08:51:23.695Z,6.40
2018-07-24T08:53:51.125Z,5.37
2018-07-24T08:56:18.016Z,5.30
2018-07-24T08:58:45.285Z,3.83
2018-07-24T09:01:12.428Z,3.37
2018-07-24T09:03:39.634Z,4.30
2018-07-24T09:06:06.916Z,4.87
2018-07-24T09:08:34.049Z,3.50
2018-07-24T09:11:01.182Z,3.87
2018-07-24T09:13:28.353Z,4.97
2018-07-24T09:15:55.477Z,3.83
2018-07-24T09:18:22.595Z,4.20
2018-07-24T09:20:49.868Z,4.33
2018-07-24T09:23:16.987Z,3.87
2018-07-24T09:25:44.148Z,3.23
2018-07-24T09:28:11.314Z,6.17
2018-07-24T09:30:38.457Z,3.57
2018-07-24T09:33:05.734Z,4.23
2018-07-24T09:35:33.043Z,5.10
2018-07-24T09:38:00.182Z,4.83
2018-07-24T09:40:27.357Z,5.87
2018-07-24T09:42:54.531Z,4.97
2018-07-24T09:45:21.666Z,4.40
2018-07-24T09:47:48.790Z,4.27
2018-07-24T09:50:21.789Z,4.73
2018-07-24T09:52:48.965Z,4.73
2018-07-24T09:55:16.095Z,6.37
2018-07-24T09:57:43.343Z,5.57
2018-07-24T10:00:10.495Z,5.17
2018-07-24T10:02:38.250Z,5.43
2018-07-24T10:05:05.814Z,4.60
2018-07-24T10:07:33.031Z,4.80
2018-07-24T10:10:00.149Z,4.50
2018-07-24T10:12:27.332Z,3.60
2018-07-24T10:14:54.468Z,3.90
2018-07-24T10:17:21.612Z,5.37
2018-07-24T10:19:48.800Z,3.97
2018-07-24T10:22:16.008Z,3.83
2018-07-24T10:24:43.136Z,3.73
2018-07-24T10:27:10.401Z,5.77
2018-07-24T10:29:37.545Z,4.40
2018-07-24T10:32:04.721Z,4.47
2018-07-24T10:34:31.977Z,3.37
2018-07-24T10:36:59.103Z,4.63
2018-07-24T10:39:26.262Z,3.37
2018-07-24T10:41:53.444Z,3.50
2018-07-24T10:44:20.567Z,6.07
2018-07-24T10:46:47.703Z,3.20
2018-07-24T10:49:14.920Z,3.67
2018-07-24T10:51:42.094Z,5.78
2018-07-24T10:54:09.236Z,3.17
2018-07-24T10:56:36.420Z,4.28
2018-07-24T10:59:03.589Z,6.12
2018-07-24T11:01:30.728Z,3.77
2018-07-24T11:03:57.968Z,3.72
2018-07-24T11:06:25.371Z,4.50
2018-07-24T11:08:52.680Z,5.17
2018-07-24T11:11:19.876Z,3.52
2018-07-24T11:13:46.999Z,4.12
2018-07-24T11:16:14.115Z,4.47
2018-07-24T11:18:41.252Z,4.67
2018-07-24T11:21:08.345Z,5.17
2018-07-24T11:23:35.457Z,4.55
2018-07-24T11:26:02.648Z,5.65
2018-07-24T11:28:29.944Z,5.05
2018-07-24T11:30:57.077Z,6.47
2018-07-24T11:33:24.521Z,3.98
2018-07-24T11:35:51.785Z,5.58
2018-07-24T11:38:18.868Z,4.55
2018-07-24T11:40:46.117Z,4.87
2018-07-24T11:43:13.227Z,6.03
2018-07-24T11:45:40.344Z,4.58
2018-07-24T11:48:07.596Z,5.33
2018-07-24T11:50:34.744Z,3.85
2018-07-24T11:53:02.056Z,4.55
2018-07-24T11:55:29.357Z,4.85
2018-07-24T11:57:56.513Z,2.98
2018-07-24T12:00:23.644Z,5.97
2018-07-24T12:02:50.812Z,3.83
2018-07-24T12:05:17.995Z,4.25
2018-07-24T12:07:45.181Z,4.78
2018-07-24T12:10:12.315Z,5.08
2018-07-24T12:12:39.431Z,3.17
2018-07-24T12:15:06.721Z,6.58
2018-07-24T12:17:33.882Z,3.15
2018-07-24T12:20:01.050Z,4.40
2018-07-24T12:22:28.205Z,4.70
2018-07-24T12:24:55.447Z,3.87
2018-07-24T12:27:22.623Z,4.35
2018-07-24T12:29:49.736Z,3.35
2018-07-24T12:32:16.906Z,3.33
2018-07-24T12:34:44.021Z,4.10
2018-07-24T12:37:11.887Z,4.35
2018-07-24T12:39:39.054Z,3.72
2018-07-24T12:42:06.229Z,4.65
2018-07-24T12:44:33.382Z,4.05
2018-07-24T12:47:00.551Z,9.48
2018-07-24T12:49:27.675Z,4.83
2018-07-24T12:51:54.831Z,4.17
2018-07-24T12:54:22.076Z,3.83
2018-07-24T12:56:49.201Z,4.80
2018-07-24T12:59:16.323Z,3.95
2018-07-24T13:01:43.507Z,3.77
2018-07-24T13:04:10.706Z,3.87
2018-07-24T13:06:37.850Z,4.70
2018-07-24T13:09:07.343Z,3.27
2018-07-24T13:11:34.500Z,3.50
2018-07-24T13:14:01.672Z,3.83
2018-07-24T13:16:28.866Z,3.97
2018-07-24T13:18:56.001Z,4.15
2018-07-24T13:21:23.153Z,4.87
2018-07-24T13:23:50.424Z,4.53
2018-07-24T13:26:17.557Z,3.97
2018-07-24T13:28:44.704Z,3.33
2018-07-24T13:31:11.925Z,3.87
2018-07-24T13:33:39.040Z,3.60
2018-07-24T13:36:06.548Z,2.83
2018-07-24T13:38:33.803Z,3.43
2018-07-24T13:41:00.936Z,2.80
2018-07-24T13:43:28.069Z,3.05
2018-07-24T13:45:55.256Z,3.70
2018-07-24T13:48:22.391Z,3.10
2018-07-24T13:50:49.533Z,3.62
2018-07-24T13:53:16.849Z,3.63
2018-07-24T13:55:44.040Z,3.33
2018-07-24T13:58:11.152Z,2.87
2018-07-24T14:00:38.321Z,4.25
2018-07-24T14:03:05.457Z,4.58
2018-07-24T14:05:32.598Z,3.70
2018-07-24T14:07:59.866Z,4.35
2018-07-24T14:10:27.028Z,4.28
2018-07-24T14:12:54.160Z,4.22
2018-07-24T14:15:21.374Z,4.20
2018-07-24T14:17:48.498Z,3.20
2018-07-24T14:20:15.763Z,2.87
2018-07-24T14:22:42.946Z,4.08
2018-07-24T14:25:10.113Z,3.85
2018-07-24T14:27:37.255Z,2.85
2018-07-24T14:30:04.777Z,3.30
2018-07-24T14:32:31.916Z,3.17
2018-07-24T14:34:59.081Z,2.62
2018-07-24T14:37:26.324Z,4.37
2018-07-24T14:39:53.464Z,4.08
2018-07-24T14:42:20.605Z,2.47
2018-07-24T14:44:47.744Z,3.25
2018-07-24T14:47:14.874Z,3.67
2018-07-24T14:49:42.019Z,2.40
2018-07-24T14:52:09.198Z,3.42
2018-07-24T14:54:36.382Z,3.52
2018-07-24T14:57:03.613Z,2.62
2018-07-24T14:59:30.780Z,4.72
2018-07-24T15:01:57.921Z,4.47
2018-07-24T15:04:25.072Z,2.77
2018-07-24T15:06:52.321Z,3.12
2018-07-24T15:09:19.487Z,2.65
2018-07-24T15:11:46.605Z,2.80
2018-07-24T15:14:13.836Z,2.83
2018-07-24T15:16:41.015Z,3.20
2018-07-24T15:19:08.108Z,3.60
2018-07-24T15:21:35.342Z,2.87
2018-07-24T15:24:02.514Z,3.52
2018-07-24T15:26:29.663Z,3.08
2018-07-24T15:28:56.871Z,3.90
2018-07-24T15:31:24.083Z,3.27
2018-07-24T15:33:51.260Z,3.33
2018-07-24T15:36:18.432Z,4.83
2018-07-24T15:38:45.564Z,2.95
2018-07-24T15:41:12.706Z,3.60
2018-07-24T15:43:39.928Z,2.65
2018-07-24T15:46:07.083Z,4.05
2018-07-24T15:48:34.250Z,3.15
2018-07-24T15:51:01.470Z,3.98
2018-07-24T15:53:28.615Z,4.20
2018-07-24T15:55:55.775Z,4.85
2018-07-24T15:58:23.023Z,3.20
2018-07-24T16:00:50.172Z,3.95
2018-07-24T16:03:17.807Z,2.62
2018-07-24T16:05:44.961Z,3.05
2018-07-24T16:08:12.097Z,3.22
2018-07-24T16:10:39.253Z,3.90
2018-07-24T16:13:06.431Z,3.47
2018-07-24T16:15:33.764Z,2.85
2018-07-24T16:18:00.757Z,2.98
2018-07-24T16:20:27.919Z,3.55
2018-07-24T16:22:55.048Z,2.40
2018-07-24T16:25:22.188Z,2.45
2018-07-24T16:27:49.374Z,2.40
2018-07-24T16:30:16.588Z,3.33
2018-07-24T16:32:43.737Z,3.50
2018-07-24T16:35:10.892Z,2.42
2018-07-24T16:37:38.003Z,5.22
2018-07-24T16:40:05.198Z,3.25
2018-07-24T16:42:32.460Z,3.08
2018-07-24T16:44:59.768Z,4.05
2018-07-24T16:47:26.890Z,3.00
2018-07-24T16:49:54.071Z,3.08
2018-07-24T16:52:21.224Z,3.75
2018-07-24T16:54:48.645Z,3.15
2018-07-24T16:57:15.826Z,2.70
2018-07-24T16:59:43.076Z,5.78
2018-07-24T17:02:10.326Z,2.60
2018-07-24T17:04:37.703Z,3.25
2018-07-24T17:07:05.040Z,4.80
2018-07-24T17:09:32.164Z,5.67
2018-07-24T17:11:59.383Z,3.05
2018-07-24T17:14:26.502Z,3.90
2018-07-24T17:16:53.632Z,2.55
2018-07-24T17:19:20.836Z,3.52
2018-07-24T17:21:48.006Z,2.70
2018-07-24T17:24:15.148Z,3.43
2018-07-24T17:26:42.433Z,3.27
2018-07-24T17:29:11.573Z,2.70
2018-07-24T17:31:40.229Z,3.57
2018-07-24T17:34:07.849Z,3.73
2018-07-24T17:36:34.997Z,3.53
2018-07-24T17:39:02.172Z,2.90
2018-07-24T17:41:29.406Z,5.03
2018-07-24T17:43:56.549Z,5.13
2018-07-24T17:46:23.680Z,4.17
2018-07-24T17:48:50.874Z,3.33
2018-07-24T17:51:18.001Z,7.23
2018-07-24T17:53:45.157Z,3.00
2018-07-24T17:56:12.292Z,4.23
2018-07-24T17:58:39.383Z,3.47
2018-07-24T18:01:06.622Z,4.43
2018-07-24T18:03:33.784Z,3.30
2018-07-24T18:06:00.920Z,3.43
2018-07-24T18:08:28.076Z,4.73
2018-07-24T18:10:55.236Z,4.13
2018-07-24T18:13:22.355Z,3.80
2018-07-24T18:15:49.584Z,3.70
2018-07-24T18:18:16.687Z,3.50
2018-07-24T18:20:43.806Z,3.50
2018-07-24T18:23:10.925Z,3.63
2018-07-24T18:25:38.077Z,3.70
2018-07-24T18:28:05.183Z,3.60
2018-07-24T18:30:32.301Z,3.87
2018-07-24T18:32:59.485Z,3.83
2018-07-24T18:35:26.605Z,5.17
2018-07-24T18:37:53.732Z,3.50
2018-07-24T18:40:21.127Z,4.30
2018-07-24T18:42:48.259Z,4.13
2018-07-24T18:45:15.372Z,4.00
2018-07-24T18:47:42.537Z,3.40
2018-07-24T18:50:09.637Z,3.97
2018-07-24T18:52:36.746Z,3.90
2018-07-24T18:55:03.937Z,3.40
2018-07-24T18:57:31.093Z,3.60
2018-07-24T18:59:58.220Z,3.83
2018-07-24T19:02:25.408Z,4.47
2018-07-24T19:04:52.521Z,3.83
2018-07-24T19:07:19.683Z,5.50
2018-07-24T19:09:46.956Z,4.47
2018-07-24T19:12:14.097Z,4.00
2018-07-24T19:14:41.215Z,4.23
2018-07-24T19:17:08.397Z,3.90
2018-07-24T19:19:35.585Z,3.80
2018-07-24T19:22:02.821Z,3.70
2018-07-24T19:24:29.996Z,4.00
2018-07-24T19:26:57.114Z,7.83
2018-07-24T19:29:24.337Z,4.20
2018-07-24T19:31:51.528Z,4.93
2018-07-24T19:34:18.655Z,5.33
2018-07-24T19:36:45.880Z,6.07
2018-07-24T19:39:13.030Z,4.30
2018-07-24T19:41:40.276Z,4.90
2018-07-24T19:44:07.856Z,5.03
2018-07-24T19:46:34.953Z,4.40
2018-07-24T19:49:02.112Z,4.93
2018-07-24T19:51:29.274Z,4.40
2018-07-24T19:53:56.449Z,4.73
2018-07-24T19:56:23.611Z,4.77
2018-07-24T19:58:50.751Z,4.67
2018-07-24T20:01:17.940Z,4.80
2018-07-24T20:03:45.137Z,5.13
2018-07-24T20:06:12.692Z,4.83
2018-07-24T20:08:39.836Z,5.20
2018-07-24T20:11:06.965Z,5.13
2018-07-24T20:13:34.130Z,4.50
2018-07-24T20:16:01.423Z,6.77
2018-07-24T20:18:28.525Z,4.73
2018-07-24T20:20:55.661Z,5.20
2018-07-24T20:23:23.017Z,5.70
2018-07-24T20:25:49.987Z,6.40
2018-07-24T20:28:17.116Z,5.13
2018-07-24T20:30:44.273Z,5.50
2018-07-24T20:33:11.408Z,5.80
2018-07-24T20:35:38.628Z,5.50
2018-07-24T20:38:05.784Z,5.27
2018-07-24T20:40:32.979Z,5.80
2018-07-24T20:43:00.142Z,6.93
2018-07-24T20:45:27.427Z,6.13
2018-07-24T20:47:54.568Z,4.97
2018-07-24T20:50:21.704Z,5.40
2018-07-24T20:52:48.872Z,5.80
2018-07-24T20:55:15.992Z,5.27
2018-07-24T20:57:43.116Z,5.20
2018-07-24T21:00:10.300Z,6.00
2018-07-24T21:02:37.448Z,5.73
2018-07-24T21:05:04.646Z,5.93
2018-07-24T21:07:31.988Z,5.60
2018-07-24T21:09:59.125Z,6.10
2018-07-24T21:12:26.284Z,6.40
2018-07-24T21:14:53.530Z,5.90
2018-07-24T21:17:20.648Z,7.63
2018-07-24T21:19:47.760Z,5.77
2018-07-24T21:22:15.027Z,8.07
2018-07-24T21:24:42.137Z,6.03
2018-07-24T21:27:09.265Z,6.23
2018-07-24T21:29:36.430Z,5.53
2018-07-24T21:32:03.612Z,5.67
2018-07-24T21:34:30.762Z,7.93
2018-07-24T21:36:57.968Z,5.50
2018-07-24T21:39:25.087Z,7.00
2018-07-24T21:41:52.220Z,6.07
2018-07-24T21:44:19.459Z,7.37
2018-07-24T21:46:46.609Z,7.43
2018-07-24T21:49:13.756Z,5.73
2018-07-24T21:51:41.045Z,6.27
2018-07-24T21:54:08.173Z,7.03
2018-07-24T21:56:35.272Z,7.57
2018-07-24T21:59:02.452Z,5.83
2018-07-24T22:01:29.600Z,6.10
2018-07-24T22:03:56.744Z,7.30
2018-07-24T22:06:24.002Z,5.57
2018-07-24T22:08:51.245Z,6.00
2018-07-24T22:11:18.292Z,5.73
2018-07-24T22:13:45.525Z,5.50
2018-07-24T22:16:12.682Z,6.37
2018-07-24T22:18:39.917Z,6.53
2018-07-24T22:21:07.406Z,6.13
2018-07-24T22:23:34.587Z,5.80
2018-07-24T22:26:01.792Z,6.07
2018-07-24T22:28:28.973Z,6.40
2018-07-24T22:30:56.085Z,6.43
2018-07-24T22:33:23.216Z,7.93
2018-07-24T22:35:50.385Z,6.20
2018-07-24T22:38:17.498Z,6.53
2018-07-24T22:40:44.634Z,6.30
2018-07-24T22:43:11.864Z,8.57
2018-07-24T22:45:39.003Z,8.17
2018-07-24T22:48:06.133Z,6.63
2018-07-24T22:50:33.324Z,6.97
2018-07-24T22:53:00.436Z,6.47
2018-07-24T22:55:27.568Z,6.20
2018-07-24T22:57:54.715Z,5.93
2018-07-24T23:00:21.885Z,6.33
2018-07-24T23:02:49.037Z,6.90
2018-07-24T23:05:16.203Z,8.97
2018-07-24T23:07:43.357Z,6.73
2018-07-24T23:10:10.516Z,7.20
2018-07-24T23:12:37.676Z,6.43
2018-07-24T23:15:05.445Z,6.73
2018-07-24T23:17:32.566Z,6.80
2018-07-24T23:19:59.814Z,6.53
2018-07-24T23:22:26.940Z,7.57
2018-07-24T23:24:54.066Z,7.13
2018-07-24T23:27:21.232Z,7.00
2018-07-24T23:29:48.343Z,6.53
2018-07-24T23:32:15.464Z,6.73
2018-07-24T23:34:42.613Z,7.00
2018-07-24T23:37:09.749Z,6.73
2018-07-24T23:39:36.873Z,7.13
2018-07-24T23:42:04.087Z,6.87
2018-07-24T23:44:31.229Z,7.10
2018-07-24T23:46:58.397Z,7.73
2018-07-24T23:49:25.641Z,7.60
2018-07-24T23:51:52.784Z,7.33
2018-07-24T23:54:19.892Z,9.43
2018-07-24T23:56:47.057Z,7.33
2018-07-24T23:59:14.178Z,6.90
